sensor_id;sensor_type;location;lat;lon;timestamp;P1;durP1;ratioP1;P2;durP2;ratioP2
18435;SDS011;9346;52.006;4.720;2023-03-14T00:00:05;5.10;;;1.40;;
18435;SDS011;9346;52.006;4.720;2023-03-14T00:02:35;7.70;;;1.57;;
18435;SDS011;9346;52.006;4.720;2023-03-14T00:05:03;11.57;;;2.20;;
18435;SDS011;9346;52.006;4.720;2023-03-14T00:07:32;6.27;;;1.90;;
18435;SDS011;9346;52.006;4.720;2023-03-14T00:10:03;9.17;;;2.37;;
18435;SDS011;9346;52.006;4.720;2023-03-14T00:12:31;6.20;;;1.73;;
18435;SDS011;9346;52.006;4.720;2023-03-14T00:14:58;7.87;;;1.43;;
18435;SDS011;9346;52.006;4.720;2023-03-14T00:17:28;7.33;;;2.23;;
18435;SDS011;9346;52.006;4.720;2023-03-14T00:19:57;4.53;;;1.40;;
18435;SDS011;9346;52.006;4.720;2023-03-14T00:22:29;7.90;;;2.13;;
18435;SDS011;9346;52.006;4.720;2023-03-14T00:24:56;10.23;;;1.97;;
18435;SDS011;9346;52.006;4.720;2023-03-14T00:27:23;5.60;;;1.60;;
18435;SDS011;9346;52.006;4.720;2023-03-14T00:29:50;4.03;;;1.63;;
18435;SDS011;9346;52.006;4.720;2023-03-14T00:32:17;4.67;;;1.53;;
18435;SDS011;9346;52.006;4.720;2023-03-14T00:34:44;4.33;;;1.30;;
18435;SDS011;9346;52.006;4.720;2023-03-14T00:37:13;4.30;;;1.40;;
18435;SDS011;9346;52.006;4.720;2023-03-14T00:39:40;5.00;;;2.03;;
18435;SDS011;9346;52.006;4.720;2023-03-14T00:42:07;3.27;;;1.00;;
18435;SDS011;9346;52.006;4.720;2023-03-14T00:44:34;5.00;;;1.47;;
18435;SDS011;9346;52.006;4.720;2023-03-14T00:47:01;8.73;;;1.93;;
18435;SDS011;9346;52.006;4.720;2023-03-14T00:49:28;3.73;;;1.67;;
18435;SDS011;9346;52.006;4.720;2023-03-14T00:51:55;9.07;;;3.23;;
18435;SDS011;9346;52.006;4.720;2023-03-14T00:54:24;18.73;;;2.83;;
18435;SDS011;9346;52.006;4.720;2023-03-14T00:56:51;11.03;;;2.53;;
18435;SDS011;9346;52.006;4.720;2023-03-14T00:59:18;9.60;;;1.90;;
18435;SDS011;9346;52.006;4.720;2023-03-14T01:01:45;6.13;;;2.03;;
18435;SDS011;9346;52.006;4.720;2023-03-14T01:04:12;5.27;;;2.43;;
18435;SDS011;9346;52.006;4.720;2023-03-14T01:06:40;7.77;;;1.73;;
18435;SDS011;9346;52.006;4.720;2023-03-14T01:09:07;4.73;;;1.80;;
18435;SDS011;9346;52.006;4.720;2023-03-14T01:11:35;9.00;;;2.07;;
18435;SDS011;9346;52.006;4.720;2023-03-14T01:14:03;6.97;;;2.07;;
18435;SDS011;9346;52.006;4.720;2023-03-14T01:16:31;5.93;;;1.50;;
18435;SDS011;9346;52.006;4.720;2023-03-14T01:19:00;6.47;;;1.60;;
18435;SDS011;9346;52.006;4.720;2023-03-14T01:21:29;5.63;;;1.70;;
18435;SDS011;9346;52.006;4.720;2023-03-14T01:23:58;15.23;;;2.07;;
18435;SDS011;9346;52.006;4.720;2023-03-14T01:26:29;3.97;;;0.97;;
18435;SDS011;9346;52.006;4.720;2023-03-14T01:28:59;8.30;;;1.50;;
18435;SDS011;9346;52.006;4.720;2023-03-14T01:31:26;7.67;;;1.87;;
18435;SDS011;9346;52.006;4.720;2023-03-14T01:33:53;10.70;;;1.13;;
18435;SDS011;9346;52.006;4.720;2023-03-14T01:36:21;4.63;;;1.00;;
18435;SDS011;9346;52.006;4.720;2023-03-14T01:38:48;6.40;;;1.70;;
18435;SDS011;9346;52.006;4.720;2023-03-14T01:41:16;8.40;;;1.27;;
18435;SDS011;9346;52.006;4.720;2023-03-14T01:43:45;5.93;;;1.37;;
18435;SDS011;9346;52.006;4.720;2023-03-14T01:46:16;3.77;;;0.93;;
18435;SDS011;9346;52.006;4.720;2023-03-14T01:48:47;8.73;;;1.07;;
18435;SDS011;9346;52.006;4.720;2023-03-14T01:51:22;6.93;;;1.27;;
18435;SDS011;9346;52.006;4.720;2023-03-14T01:53:53;3.90;;;1.27;;
18435;SDS011;9346;52.006;4.720;2023-03-14T01:56:29;4.50;;;1.53;;
18435;SDS011;9346;52.006;4.720;2023-03-14T01:58:57;6.03;;;1.33;;
18435;SDS011;9346;52.006;4.720;2023-03-14T02:01:29;7.00;;;1.77;;
18435;SDS011;9346;52.006;4.720;2023-03-14T02:03:57;6.10;;;1.93;;
18435;SDS011;9346;52.006;4.720;2023-03-14T02:06:29;8.43;;;1.53;;
18435;SDS011;9346;52.006;4.720;2023-03-14T02:09:02;7.63;;;1.47;;
18435;SDS011;9346;52.006;4.720;2023-03-14T02:11:30;4.83;;;1.20;;
18435;SDS011;9346;52.006;4.720;2023-03-14T02:13:57;4.37;;;1.07;;
18435;SDS011;9346;52.006;4.720;2023-03-14T02:16:26;8.30;;;1.33;;
18435;SDS011;9346;52.006;4.720;2023-03-14T02:18:54;9.37;;;1.73;;
18435;SDS011;9346;52.006;4.720;2023-03-14T02:21:23;6.93;;;1.70;;
18435;SDS011;9346;52.006;4.720;2023-03-14T02:24:02;3.80;;;1.03;;
18435;SDS011;9346;52.006;4.720;2023-03-14T02:26:36;8.73;;;1.73;;
18435;SDS011;9346;52.006;4.720;2023-03-14T02:29:09;6.30;;;1.27;;
18435;SDS011;9346;52.006;4.720;2023-03-14T02:31:36;8.33;;;2.20;;
18435;SDS011;9346;52.006;4.720;2023-03-14T02:34:03;5.43;;;1.43;;
18435;SDS011;9346;52.006;4.720;2023-03-14T02:36:31;8.00;;;1.47;;
18435;SDS011;9346;52.006;4.720;2023-03-14T02:39:00;9.27;;;1.70;;
18435;SDS011;9346;52.006;4.720;2023-03-14T02:41:34;4.77;;;1.20;;
18435;SDS011;9346;52.006;4.720;2023-03-14T02:44:01;4.70;;;1.13;;
18435;SDS011;9346;52.006;4.720;2023-03-14T02:46:30;6.23;;;1.10;;
18435;SDS011;9346;52.006;4.720;2023-03-14T02:48:58;8.80;;;1.43;;
18435;SDS011;9346;52.006;4.720;2023-03-14T02:51:28;7.30;;;1.50;;
18435;SDS011;9346;52.006;4.720;2023-03-14T02:53:56;11.53;;;1.20;;
18435;SDS011;9346;52.006;4.720;2023-03-14T02:56:23;6.23;;;1.10;;
18435;SDS011;9346;52.006;4.720;2023-03-14T02:58:50;7.77;;;1.57;;
18435;SDS011;9346;52.006;4.720;2023-03-14T03:01:16;8.73;;;1.40;;
18435;SDS011;9346;52.006;4.720;2023-03-14T03:03:45;6.10;;;1.77;;
18435;SDS011;9346;52.006;4.720;2023-03-14T03:06:12;8.33;;;1.57;;
18435;SDS011;9346;52.006;4.720;2023-03-14T03:08:39;8.17;;;1.40;;
18435;SDS011;9346;52.006;4.720;2023-03-14T03:11:06;8.03;;;1.83;;
18435;SDS011;9346;52.006;4.720;2023-03-14T03:13:33;6.03;;;2.07;;
18435;SDS011;9346;52.006;4.720;2023-03-14T03:16:00;13.00;;;2.97;;
18435;SDS011;9346;52.006;4.720;2023-03-14T03:18:28;7.50;;;1.50;;
18435;SDS011;9346;52.006;4.720;2023-03-14T03:20:58;5.00;;;1.57;;
18435;SDS011;9346;52.006;4.720;2023-03-14T03:23:26;5.57;;;1.20;;
18435;SDS011;9346;52.006;4.720;2023-03-14T03:25:53;9.13;;;1.20;;
18435;SDS011;9346;52.006;4.720;2023-03-14T03:28:20;7.03;;;1.70;;
18435;SDS011;9346;52.006;4.720;2023-03-14T03:30:47;6.97;;;1.97;;
18435;SDS011;9346;52.006;4.720;2023-03-14T03:33:14;9.17;;;1.60;;
18435;SDS011;9346;52.006;4.720;2023-03-14T03:35:42;5.90;;;1.47;;
18435;SDS011;9346;52.006;4.720;2023-03-14T03:38:12;10.07;;;1.90;;
18435;SDS011;9346;52.006;4.720;2023-03-14T03:40:40;5.10;;;2.07;;
18435;SDS011;9346;52.006;4.720;2023-03-14T03:43:07;7.50;;;1.57;;
18435;SDS011;9346;52.006;4.720;2023-03-14T03:45:34;6.03;;;1.50;;
18435;SDS011;9346;52.006;4.720;2023-03-14T03:48:01;4.30;;;1.27;;
18435;SDS011;9346;52.006;4.720;2023-03-14T03:50:28;13.53;;;2.40;;
18435;SDS011;9346;52.006;4.720;2023-03-14T03:52:55;5.30;;;1.43;;
18435;SDS011;9346;52.006;4.720;2023-03-14T03:55:23;6.17;;;1.40;;
18435;SDS011;9346;52.006;4.720;2023-03-14T03:57:51;7.83;;;1.63;;
18435;SDS011;9346;52.006;4.720;2023-03-14T04:00:18;6.83;;;1.33;;
18435;SDS011;9346;52.006;4.720;2023-03-14T04:02:45;4.87;;;1.00;;
18435;SDS011;9346;52.006;4.720;2023-03-14T04:05:13;17.00;;;1.87;;
18435;SDS011;9346;52.006;4.720;2023-03-14T04:07:40;5.27;;;1.00;;
18435;SDS011;9346;52.006;4.720;2023-03-14T04:10:07;6.53;;;1.83;;
18435;SDS011;9346;52.006;4.720;2023-03-14T04:12:37;8.07;;;1.53;;
18435;SDS011;9346;52.006;4.720;2023-03-14T04:15:05;3.07;;;1.30;;
18435;SDS011;9346;52.006;4.720;2023-03-14T04:17:32;7.63;;;1.40;;
18435;SDS011;9346;52.006;4.720;2023-03-14T04:19:59;9.83;;;1.17;;
18435;SDS011;9346;52.006;4.720;2023-03-14T04:22:27;11.43;;;2.40;;
18435;SDS011;9346;52.006;4.720;2023-03-14T04:24:54;6.63;;;1.50;;
18435;SDS011;9346;52.006;4.720;2023-03-14T04:27:21;8.47;;;1.80;;
18435;SDS011;9346;52.006;4.720;2023-03-14T04:29:50;4.77;;;1.77;;
18435;SDS011;9346;52.006;4.720;2023-03-14T04:32:17;8.47;;;1.47;;
18435;SDS011;9346;52.006;4.720;2023-03-14T04:34:44;8.77;;;1.63;;
18435;SDS011;9346;52.006;4.720;2023-03-14T04:37:11;4.20;;;1.30;;
18435;SDS011;9346;52.006;4.720;2023-03-14T04:39:38;6.07;;;1.07;;
18435;SDS011;9346;52.006;4.720;2023-03-14T04:42:05;6.20;;;1.40;;
18435;SDS011;9346;52.006;4.720;2023-03-14T04:44:33;10.73;;;2.00;;
18435;SDS011;9346;52.006;4.720;2023-03-14T04:47:02;3.50;;;1.23;;
18435;SDS011;9346;52.006;4.720;2023-03-14T04:49:29;3.37;;;1.33;;
18435;SDS011;9346;52.006;4.720;2023-03-14T04:51:56;5.57;;;1.20;;
18435;SDS011;9346;52.006;4.720;2023-03-14T04:54:23;4.60;;;1.50;;
18435;SDS011;9346;52.006;4.720;2023-03-14T04:56:51;5.17;;;1.23;;
18435;SDS011;9346;52.006;4.720;2023-03-14T04:59:18;4.47;;;1.57;;
18435;SDS011;9346;52.006;4.720;2023-03-14T05:01:45;7.97;;;1.30;;
18435;SDS011;9346;52.006;4.720;2023-03-14T05:04:15;5.33;;;1.53;;
18435;SDS011;9346;52.006;4.720;2023-03-14T05:06:42;6.87;;;1.87;;
18435;SDS011;9346;52.006;4.720;2023-03-14T05:09:09;8.60;;;1.60;;
18435;SDS011;9346;52.006;4.720;2023-03-14T05:11:36;5.93;;;1.37;;
18435;SDS011;9346;52.006;4.720;2023-03-14T05:14:03;5.23;;;1.63;;
18435;SDS011;9346;52.006;4.720;2023-03-14T05:16:30;5.10;;;1.57;;
18435;SDS011;9346;52.006;4.720;2023-03-14T05:18:57;8.50;;;1.87;;
18435;SDS011;9346;52.006;4.720;2023-03-14T05:21:28;5.50;;;1.20;;
18435;SDS011;9346;52.006;4.720;2023-03-14T05:23:54;5.63;;;1.90;;
18435;SDS011;9346;52.006;4.720;2023-03-14T05:26:22;8.87;;;2.10;;
18435;SDS011;9346;52.006;4.720;2023-03-14T05:28:49;5.43;;;1.10;;
18435;SDS011;9346;52.006;4.720;2023-03-14T05:31:16;4.30;;;1.30;;
18435;SDS011;9346;52.006;4.720;2023-03-14T05:33:43;4.07;;;1.20;;
18435;SDS011;9346;52.006;4.720;2023-03-14T05:36:10;5.63;;;1.53;;
18435;SDS011;9346;52.006;4.720;2023-03-14T05:38:39;7.53;;;2.60;;
18435;SDS011;9346;52.006;4.720;2023-03-14T05:41:06;4.03;;;1.70;;
18435;SDS011;9346;52.006;4.720;2023-03-14T05:43:33;5.07;;;1.87;;
18435;SDS011;9346;52.006;4.720;2023-03-14T05:45:59;2.97;;;1.70;;
18435;SDS011;9346;52.006;4.720;2023-03-14T05:48:26;3.60;;;1.83;;
18435;SDS011;9346;52.006;4.720;2023-03-14T05:50:57;4.97;;;2.03;;
18435;SDS011;9346;52.006;4.720;2023-03-14T05:53:25;3.90;;;1.40;;
18435;SDS011;9346;52.006;4.720;2023-03-14T05:55:56;5.53;;;1.17;;
18435;SDS011;9346;52.006;4.720;2023-03-14T05:58:23;3.03;;;1.27;;
18435;SDS011;9346;52.006;4.720;2023-03-14T06:00:50;1.27;;;0.50;;
18435;SDS011;9346;52.006;4.720;2023-03-14T06:03:17;2.40;;;0.83;;
18435;SDS011;9346;52.006;4.720;2023-03-14T06:05:44;1.53;;;0.50;;
18435;SDS011;9346;52.006;4.720;2023-03-14T06:08:11;0.53;;;0.40;;
18435;SDS011;9346;52.006;4.720;2023-03-14T06:10:38;3.30;;;1.03;;
18435;SDS011;9346;52.006;4.720;2023-03-14T06:13:08;1.27;;;0.80;;
18435;SDS011;9346;52.006;4.720;2023-03-14T06:15:34;3.50;;;0.60;;
18435;SDS011;9346;52.006;4.720;2023-03-14T06:18:01;4.17;;;1.03;;
18435;SDS011;9346;52.006;4.720;2023-03-14T06:20:29;0.70;;;0.53;;
18435;SDS011;9346;52.006;4.720;2023-03-14T06:22:55;2.67;;;0.70;;
18435;SDS011;9346;52.006;4.720;2023-03-14T06:25:22;2.67;;;0.60;;
18435;SDS011;9346;52.006;4.720;2023-03-14T06:27:49;4.00;;;0.60;;
18435;SDS011;9346;52.006;4.720;2023-03-14T06:30:18;2.40;;;0.60;;
18435;SDS011;9346;52.006;4.720;2023-03-14T06:32:45;2.53;;;0.53;;
18435;SDS011;9346;52.006;4.720;2023-03-14T06:35:12;1.80;;;0.33;;
18435;SDS011;9346;52.006;4.720;2023-03-14T06:37:40;3.30;;;0.47;;
18435;SDS011;9346;52.006;4.720;2023-03-14T06:40:08;2.87;;;0.67;;
18435;SDS011;9346;52.006;4.720;2023-03-14T06:42:42;2.23;;;0.90;;
18435;SDS011;9346;52.006;4.720;2023-03-14T06:45:09;1.63;;;0.47;;
18435;SDS011;9346;52.006;4.720;2023-03-14T06:47:39;2.20;;;0.70;;
18435;SDS011;9346;52.006;4.720;2023-03-14T06:50:06;0.97;;;0.63;;
18435;SDS011;9346;52.006;4.720;2023-03-14T06:52:34;0.93;;;0.40;;
18435;SDS011;9346;52.006;4.720;2023-03-14T06:55:01;1.80;;;0.67;;
18435;SDS011;9346;52.006;4.720;2023-03-14T06:57:29;1.33;;;0.53;;
18435;SDS011;9346;52.006;4.720;2023-03-14T06:59:56;1.07;;;0.60;;
18435;SDS011;9346;52.006;4.720;2023-03-14T07:02:23;7.00;;;0.70;;
18435;SDS011;9346;52.006;4.720;2023-03-14T07:04:51;9.37;;;0.57;;
18435;SDS011;9346;52.006;4.720;2023-03-14T07:07:18;1.97;;;0.90;;
18435;SDS011;9346;52.006;4.720;2023-03-14T07:09:45;7.13;;;0.90;;
18435;SDS011;9346;52.006;4.720;2023-03-14T07:12:12;4.07;;;0.63;;
18435;SDS011;9346;52.006;4.720;2023-03-14T07:14:39;4.13;;;1.00;;
18435;SDS011;9346;52.006;4.720;2023-03-14T07:17:05;4.40;;;0.73;;
18435;SDS011;9346;52.006;4.720;2023-03-14T07:19:32;1.37;;;0.70;;
18435;SDS011;9346;52.006;4.720;2023-03-14T07:22:01;3.10;;;1.40;;
18435;SDS011;9346;52.006;4.720;2023-03-14T07:24:28;6.97;;;0.80;;
18435;SDS011;9346;52.006;4.720;2023-03-14T07:26:56;2.47;;;0.40;;
18435;SDS011;9346;52.006;4.720;2023-03-14T07:29:23;4.53;;;0.77;;
18435;SDS011;9346;52.006;4.720;2023-03-14T07:31:50;1.23;;;0.47;;
18435;SDS011;9346;52.006;4.720;2023-03-14T07:34:17;3.40;;;0.70;;
18435;SDS011;9346;52.006;4.720;2023-03-14T07:36:44;4.87;;;1.17;;
18435;SDS011;9346;52.006;4.720;2023-03-14T07:39:13;7.60;;;1.10;;
18435;SDS011;9346;52.006;4.720;2023-03-14T07:41:39;1.90;;;0.77;;
18435;SDS011;9346;52.006;4.720;2023-03-14T07:44:06;4.73;;;0.63;;
18435;SDS011;9346;52.006;4.720;2023-03-14T07:46:33;6.13;;;0.77;;
18435;SDS011;9346;52.006;4.720;2023-03-14T07:49:00;3.17;;;0.73;;
18435;SDS011;9346;52.006;4.720;2023-03-14T07:51:27;7.27;;;0.60;;
18435;SDS011;9346;52.006;4.720;2023-03-14T07:53:54;7.33;;;0.77;;
18435;SDS011;9346;52.006;4.720;2023-03-14T07:56:22;5.00;;;0.90;;
18435;SDS011;9346;52.006;4.720;2023-03-14T07:58:49;0.57;;;0.53;;
18435;SDS011;9346;52.006;4.720;2023-03-14T08:01:16;4.53;;;0.83;;
18435;SDS011;9346;52.006;4.720;2023-03-14T08:03:43;3.30;;;0.27;;
18435;SDS011;9346;52.006;4.720;2023-03-14T08:06:10;5.30;;;0.80;;
18435;SDS011;9346;52.006;4.720;2023-03-14T08:08:38;5.97;;;1.20;;
18435;SDS011;9346;52.006;4.720;2023-03-14T08:11:05;3.83;;;1.53;;
18435;SDS011;9346;52.006;4.720;2023-03-14T08:13:35;1.83;;;1.13;;
18435;SDS011;9346;52.006;4.720;2023-03-14T08:16:03;4.40;;;1.20;;
18435;SDS011;9346;52.006;4.720;2023-03-14T08:18:31;8.93;;;1.87;;
18435;SDS011;9346;52.006;4.720;2023-03-14T08:20:58;2.63;;;0.60;;
18435;SDS011;9346;52.006;4.720;2023-03-14T08:23:25;8.90;;;1.47;;
18435;SDS011;9346;52.006;4.720;2023-03-14T08:25:52;4.47;;;1.17;;
18435;SDS011;9346;52.006;4.720;2023-03-14T08:28:19;4.70;;;0.70;;
18435;SDS011;9346;52.006;4.720;2023-03-14T08:30:47;7.93;;;1.07;;
18435;SDS011;9346;52.006;4.720;2023-03-14T08:33:15;4.93;;;1.03;;
18435;SDS011;9346;52.006;4.720;2023-03-14T08:35:42;0.47;;;0.33;;
18435;SDS011;9346;52.006;4.720;2023-03-14T08:38:09;2.97;;;1.57;;
18435;SDS011;9346;52.006;4.720;2023-03-14T08:40:36;3.83;;;0.60;;
18435;SDS011;9346;52.006;4.720;2023-03-14T08:43:03;4.50;;;0.73;;
18435;SDS011;9346;52.006;4.720;2023-03-14T08:45:30;1.50;;;0.40;;
18435;SDS011;9346;52.006;4.720;2023-03-14T08:47:59;4.63;;;1.57;;
18435;SDS011;9346;52.006;4.720;2023-03-14T08:50:26;2.87;;;0.40;;
18435;SDS011;9346;52.006;4.720;2023-03-14T08:52:53;3.77;;;0.73;;
18435;SDS011;9346;52.006;4.720;2023-03-14T08:55:20;7.53;;;1.03;;
18435;SDS011;9346;52.006;4.720;2023-03-14T08:57:47;9.50;;;0.70;;
18435;SDS011;9346;52.006;4.720;2023-03-14T09:00:14;3.90;;;0.70;;
18435;SDS011;9346;52.006;4.720;2023-03-14T09:02:42;3.70;;;0.70;;
18435;SDS011;9346;52.006;4.720;2023-03-14T09:05:11;4.00;;;0.83;;
18435;SDS011;9346;52.006;4.720;2023-03-14T09:07:39;4.70;;;0.83;;
18435;SDS011;9346;52.006;4.720;2023-03-14T09:10:06;3.40;;;1.00;;
18435;SDS011;9346;52.006;4.720;2023-03-14T09:12:34;4.60;;;0.63;;
18435;SDS011;9346;52.006;4.720;2023-03-14T09:15:02;3.57;;;0.73;;
18435;SDS011;9346;52.006;4.720;2023-03-14T09:17:29;6.60;;;0.83;;
18435;SDS011;9346;52.006;4.720;2023-03-14T09:19:57;10.47;;;2.00;;
18435;SDS011;9346;52.006;4.720;2023-03-14T09:22:28;6.83;;;1.33;;
18435;SDS011;9346;52.006;4.720;2023-03-14T09:24:55;6.27;;;1.30;;
18435;SDS011;9346;52.006;4.720;2023-03-14T09:27:21;6.23;;;1.03;;
18435;SDS011;9346;52.006;4.720;2023-03-14T09:29:48;5.10;;;1.30;;
18435;SDS011;9346;52.006;4.720;2023-03-14T09:32:15;22.37;;;2.37;;
18435;SDS011;9346;52.006;4.720;2023-03-14T09:34:42;11.67;;;1.27;;
18435;SDS011;9346;52.006;4.720;2023-03-14T09:37:09;7.50;;;1.53;;
18435;SDS011;9346;52.006;4.720;2023-03-14T09:39:37;15.57;;;2.10;;
18435;SDS011;9346;52.006;4.720;2023-03-14T09:42:06;11.53;;;1.93;;
18435;SDS011;9346;52.006;4.720;2023-03-14T09:44:41;22.17;;;2.50;;
18435;SDS011;9346;52.006;4.720;2023-03-14T09:47:15;7.87;;;1.83;;
18435;SDS011;9346;52.006;4.720;2023-03-14T09:49:44;6.20;;;2.10;;
18435;SDS011;9346;52.006;4.720;2023-03-14T09:52:13;4.73;;;1.00;;
18435;SDS011;9346;52.006;4.720;2023-03-14T09:54:44;6.00;;;1.33;;
18435;SDS011;9346;52.006;4.720;2023-03-14T09:57:14;6.27;;;1.10;;
18435;SDS011;9346;52.006;4.720;2023-03-14T09:59:43;12.70;;;1.47;;
18435;SDS011;9346;52.006;4.720;2023-03-14T10:02:13;3.33;;;0.97;;
18435;SDS011;9346;52.006;4.720;2023-03-14T10:04:44;7.50;;;1.60;;
18435;SDS011;9346;52.006;4.720;2023-03-14T10:07:13;8.50;;;1.83;;
18435;SDS011;9346;52.006;4.720;2023-03-14T10:09:47;12.50;;;2.33;;
18435;SDS011;9346;52.006;4.720;2023-03-14T10:12:16;7.23;;;1.67;;
18435;SDS011;9346;52.006;4.720;2023-03-14T10:14:45;11.13;;;2.03;;
18435;SDS011;9346;52.006;4.720;2023-03-14T10:17:14;4.17;;;1.03;;
18435;SDS011;9346;52.006;4.720;2023-03-14T10:19:52;10.37;;;1.40;;
18435;SDS011;9346;52.006;4.720;2023-03-14T10:22:22;13.20;;;1.93;;
18435;SDS011;9346;52.006;4.720;2023-03-14T10:24:53;11.23;;;2.17;;
18435;SDS011;9346;52.006;4.720;2023-03-14T10:27:27;5.63;;;1.43;;
18435;SDS011;9346;52.006;4.720;2023-03-14T10:29:56;17.33;;;1.43;;
18435;SDS011;9346;52.006;4.720;2023-03-14T10:32:27;12.70;;;2.17;;
18435;SDS011;9346;52.006;4.720;2023-03-14T10:35:06;8.87;;;1.93;;
18435;SDS011;9346;52.006;4.720;2023-03-14T10:37:47;13.33;;;1.97;;
18435;SDS011;9346;52.006;4.720;2023-03-14T10:40:18;6.87;;;1.37;;
18435;SDS011;9346;52.006;4.720;2023-03-14T10:42:46;23.57;;;2.40;;
18435;SDS011;9346;52.006;4.720;2023-03-14T10:45:22;13.23;;;2.23;;
18435;SDS011;9346;52.006;4.720;2023-03-14T10:47:58;14.17;;;2.33;;
18435;SDS011;9346;52.006;4.720;2023-03-14T10:50:32;9.80;;;2.67;;
18435;SDS011;9346;52.006;4.720;2023-03-14T10:53:00;13.63;;;2.57;;
18435;SDS011;9346;52.006;4.720;2023-03-14T10:55:40;27.93;;;2.67;;
18435;SDS011;9346;52.006;4.720;2023-03-14T10:58:23;14.70;;;1.93;;
18435;SDS011;9346;52.006;4.720;2023-03-14T11:00:54;15.30;;;2.37;;
18435;SDS011;9346;52.006;4.720;2023-03-14T11:03:27;21.23;;;2.67;;
18435;SDS011;9346;52.006;4.720;2023-03-14T11:05:59;8.07;;;2.10;;
18435;SDS011;9346;52.006;4.720;2023-03-14T11:08:36;12.70;;;2.33;;
18435;SDS011;9346;52.006;4.720;2023-03-14T11:11:13;19.17;;;2.77;;
18435;SDS011;9346;52.006;4.720;2023-03-14T11:13:47;9.20;;;1.53;;
18435;SDS011;9346;52.006;4.720;2023-03-14T11:16:24;9.73;;;1.80;;
18435;SDS011;9346;52.006;4.720;2023-03-14T11:19:13;16.80;;;2.30;;
18435;SDS011;9346;52.006;4.720;2023-03-14T11:21:52;11.37;;;1.30;;
18435;SDS011;9346;52.006;4.720;2023-03-14T11:24:27;14.83;;;2.27;;
18435;SDS011;9346;52.006;4.720;2023-03-14T11:27:06;12.47;;;1.63;;
18435;SDS011;9346;52.006;4.720;2023-03-14T11:29:39;6.30;;;1.40;;
18435;SDS011;9346;52.006;4.720;2023-03-14T11:32:10;5.03;;;2.37;;
18435;SDS011;9346;52.006;4.720;2023-03-14T11:34:42;9.97;;;2.23;;
18435;SDS011;9346;52.006;4.720;2023-03-14T11:37:17;10.23;;;1.77;;
18435;SDS011;9346;52.006;4.720;2023-03-14T11:39:52;5.17;;;1.37;;
18435;SDS011;9346;52.006;4.720;2023-03-14T11:42:27;8.00;;;1.30;;
18435;SDS011;9346;52.006;4.720;2023-03-14T11:44:55;4.73;;;0.90;;
18435;SDS011;9346;52.006;4.720;2023-03-14T11:47:26;9.10;;;1.57;;
18435;SDS011;9346;52.006;4.720;2023-03-14T11:50:00;7.33;;;1.07;;
18435;SDS011;9346;52.006;4.720;2023-03-14T11:52:33;14.43;;;1.17;;
18435;SDS011;9346;52.006;4.720;2023-03-14T11:55:03;12.00;;;1.17;;
18435;SDS011;9346;52.006;4.720;2023-03-14T11:57:39;8.27;;;1.57;;
18435;SDS011;9346;52.006;4.720;2023-03-14T12:00:12;5.67;;;1.30;;
18435;SDS011;9346;52.006;4.720;2023-03-14T12:02:45;4.27;;;0.90;;
18435;SDS011;9346;52.006;4.720;2023-03-14T12:05:28;4.60;;;1.40;;
18435;SDS011;9346;52.006;4.720;2023-03-14T12:08:18;6.43;;;1.10;;
18435;SDS011;9346;52.006;4.720;2023-03-14T12:10:53;6.33;;;1.27;;
18435;SDS011;9346;52.006;4.720;2023-03-14T12:13:24;18.03;;;1.73;;
18435;SDS011;9346;52.006;4.720;2023-03-14T12:15:56;10.20;;;1.40;;
18435;SDS011;9346;52.006;4.720;2023-03-14T12:18:26;6.00;;;1.70;;
18435;SDS011;9346;52.006;4.720;2023-03-14T12:20:55;4.50;;;1.00;;
18435;SDS011;9346;52.006;4.720;2023-03-14T12:23:24;1.23;;;0.47;;
18435;SDS011;9346;52.006;4.720;2023-03-14T12:28:48;2.97;;;1.30;;
18435;SDS011;9346;52.006;4.720;2023-03-14T12:31:35;7.93;;;1.23;;
18435;SDS011;9346;52.006;4.720;2023-03-14T12:34:24;9.27;;;1.17;;
18435;SDS011;9346;52.006;4.720;2023-03-14T12:36:56;8.97;;;1.30;;
18435;SDS011;9346;52.006;4.720;2023-03-14T12:39:31;2.40;;;0.77;;
18435;SDS011;9346;52.006;4.720;2023-03-14T12:42:04;5.80;;;1.30;;
18435;SDS011;9346;52.006;4.720;2023-03-14T12:44:42;4.90;;;1.43;;
18435;SDS011;9346;52.006;4.720;2023-03-14T12:50:14;8.27;;;1.30;;
18435;SDS011;9346;52.006;4.720;2023-03-14T12:52:50;8.50;;;1.33;;
18435;SDS011;9346;52.006;4.720;2023-03-14T12:55:33;10.37;;;1.63;;
18435;SDS011;9346;52.006;4.720;2023-03-14T12:58:05;6.70;;;1.23;;
18435;SDS011;9346;52.006;4.720;2023-03-14T13:00:42;11.13;;;1.93;;
18435;SDS011;9346;52.006;4.720;2023-03-14T13:03:13;6.00;;;1.20;;
18435;SDS011;9346;52.006;4.720;2023-03-14T13:05:53;6.07;;;1.00;;
18435;SDS011;9346;52.006;4.720;2023-03-14T13:08:33;3.50;;;0.80;;
18435;SDS011;9346;52.006;4.720;2023-03-14T13:11:04;7.30;;;1.03;;
18435;SDS011;9346;52.006;4.720;2023-03-14T13:13:34;4.73;;;1.20;;
18435;SDS011;9346;52.006;4.720;2023-03-14T13:16:05;1.40;;;0.60;;
18435;SDS011;9346;52.006;4.720;2023-03-14T13:18:36;6.70;;;0.80;;
18435;SDS011;9346;52.006;4.720;2023-03-14T13:21:05;11.57;;;1.03;;
18435;SDS011;9346;52.006;4.720;2023-03-14T13:23:37;3.97;;;0.97;;
18435;SDS011;9346;52.006;4.720;2023-03-14T13:26:06;4.23;;;0.60;;
18435;SDS011;9346;52.006;4.720;2023-03-14T13:28:37;13.17;;;1.37;;
18435;SDS011;9346;52.006;4.720;2023-03-14T13:31:16;4.93;;;1.03;;
18435;SDS011;9346;52.006;4.720;2023-03-14T13:33:56;4.57;;;0.57;;
18435;SDS011;9346;52.006;4.720;2023-03-14T13:36:24;13.03;;;1.20;;
18435;SDS011;9346;52.006;4.720;2023-03-14T13:38:55;6.00;;;1.20;;
18435;SDS011;9346;52.006;4.720;2023-03-14T13:41:24;8.60;;;1.33;;
18435;SDS011;9346;52.006;4.720;2023-03-14T13:43:52;3.40;;;1.07;;
18435;SDS011;9346;52.006;4.720;2023-03-14T13:46:30;4.27;;;0.77;;
18435;SDS011;9346;52.006;4.720;2023-03-14T13:49:01;3.37;;;1.20;;
18435;SDS011;9346;52.006;4.720;2023-03-14T13:51:30;7.93;;;0.93;;
18435;SDS011;9346;52.006;4.720;2023-03-14T13:53:59;3.30;;;1.10;;
18435;SDS011;9346;52.006;4.720;2023-03-14T13:56:28;3.17;;;1.10;;
18435;SDS011;9346;52.006;4.720;2023-03-14T13:58:58;6.60;;;0.90;;
18435;SDS011;9346;52.006;4.720;2023-03-14T14:01:25;1.97;;;0.90;;
18435;SDS011;9346;52.006;4.720;2023-03-14T14:03:58;4.43;;;0.80;;
18435;SDS011;9346;52.006;4.720;2023-03-14T14:06:33;4.03;;;1.10;;
18435;SDS011;9346;52.006;4.720;2023-03-14T14:09:02;2.83;;;0.57;;
18435;SDS011;9346;52.006;4.720;2023-03-14T14:11:38;1.90;;;0.80;;
18435;SDS011;9346;52.006;4.720;2023-03-14T14:14:10;5.50;;;1.17;;
18435;SDS011;9346;52.006;4.720;2023-03-14T14:16:42;6.30;;;1.33;;
18435;SDS011;9346;52.006;4.720;2023-03-14T14:19:12;2.00;;;0.80;;
18435;SDS011;9346;52.006;4.720;2023-03-14T14:21:41;4.13;;;0.63;;
18435;SDS011;9346;52.006;4.720;2023-03-14T14:24:09;2.30;;;0.80;;
18435;SDS011;9346;52.006;4.720;2023-03-14T14:26:41;12.57;;;1.27;;
18435;SDS011;9346;52.006;4.720;2023-03-14T14:29:20;5.37;;;0.90;;
18435;SDS011;9346;52.006;4.720;2023-03-14T14:32:02;1.23;;;0.50;;
18435;SDS011;9346;52.006;4.720;2023-03-14T14:34:42;7.70;;;0.90;;
18435;SDS011;9346;52.006;4.720;2023-03-14T14:37:18;3.33;;;0.93;;
18435;SDS011;9346;52.006;4.720;2023-03-14T14:39:46;3.93;;;0.87;;
18435;SDS011;9346;52.006;4.720;2023-03-14T14:42:14;3.73;;;1.07;;
18435;SDS011;9346;52.006;4.720;2023-03-14T14:44:42;8.87;;;0.90;;
18435;SDS011;9346;52.006;4.720;2023-03-14T14:47:12;3.20;;;1.10;;
18435;SDS011;9346;52.006;4.720;2023-03-14T14:49:44;9.73;;;1.37;;
18435;SDS011;9346;52.006;4.720;2023-03-14T14:52:14;4.40;;;0.90;;
18435;SDS011;9346;52.006;4.720;2023-03-14T14:54:43;5.60;;;0.83;;
18435;SDS011;9346;52.006;4.720;2023-03-14T14:57:17;3.77;;;1.10;;
18435;SDS011;9346;52.006;4.720;2023-03-14T14:59:47;7.80;;;0.80;;
18435;SDS011;9346;52.006;4.720;2023-03-14T15:02:26;6.93;;;1.10;;
18435;SDS011;9346;52.006;4.720;2023-03-14T15:05:00;4.73;;;1.37;;
18435;SDS011;9346;52.006;4.720;2023-03-14T15:07:27;5.53;;;0.90;;
18435;SDS011;9346;52.006;4.720;2023-03-14T15:09:54;7.83;;;1.07;;
18435;SDS011;9346;52.006;4.720;2023-03-14T15:12:21;10.93;;;1.80;;
18435;SDS011;9346;52.006;4.720;2023-03-14T15:14:49;6.43;;;0.90;;
18435;SDS011;9346;52.006;4.720;2023-03-14T15:17:16;2.20;;;0.73;;
18435;SDS011;9346;52.006;4.720;2023-03-14T15:19:43;6.90;;;0.77;;